Latest Weather Observations for Rottnest Island

IDW60801

Issued at 3:32 pm WST Friday 3 July 2015 (issued every 30 minutes, with the page automatically refreshed every 10 minutes)

About weather observations | Map of weather stations | Latest weather observations for WA | Other Formats
Station Details ID: 009193 Name: ROTTNEST ISLAND Lat: -32.01 Lon: 115.50 Height: 43.1 m
Data from the previous 72 hours. | See also: Recent months at Rottnest Island
Date/Time
WST
Temp
°C
App
Temp
°C
Dew
Point
Rel
Hum
%
Delta-T
°C
Wind Press
QNH
hPa
Press
MSL
hPa
Rain
since 9 am
mm
Dir
 
Spd
km/h
Gust
km/h
Spd
kts
Gust
kts
03/03:30pm 20.0 18.1 14.1 69 3.4 WSW 17 20 9 11 1021.8 1021.8 0.4
03/03:00pm 20.3 19.2 15.3 73 2.9 SW 15 19 8 10 1021.7 1021.7 0.4
03/02:30pm 20.3 19.5 15.1 72 3.1 SW 13 19 7 10 1021.6 1021.6 0.4
03/02:00pm 19.8 20.2 16.3 80 2.1 NNW 9 11 5 6 1021.8 1021.8 0.4
03/01:30pm 18.9 19.7 15.9 83 1.8 N 6 7 3 4 1021.9 1021.9 0.4
03/01:00pm 19.0 19.3 16.0 83 1.8 N 9 11 5 6 1021.9 1021.9 0.4
03/12:30pm 18.8 20.0 15.9 83 1.7 SE 4 7 2 4 1022.2 1022.2 0.4
03/12:00pm 19.4 20.3 16.6 84 1.7 NE 7 11 4 6 1022.4 1022.4 0.4
03/11:30am 18.6 19.1 16.6 88 1.2 ENE 9 11 5 6 1022.6 1022.6 0.4
03/11:00am 18.9 19.8 16.5 86 1.4 ESE 7 11 4 6 1022.9 1022.9 0.4
03/10:30am 18.1 17.0 16.3 89 1.1 SSE 17 20 9 11 1022.9 1022.9 0.4
03/10:00am 19.2 18.8 16.1 82 1.8 S 13 17 7 9 1022.8 1022.8 0.0
03/09:30am 17.7 16.1 16.0 90 1.0 S 19 22 10 12 1022.6 1022.6 0.0
03/09:00am 18.7 19.0 17.0 90 1.0 SSW 11 15 6 8 1022.6 1022.6 2.0
03/08:30am 17.7 16.5 16.0 90 1.0 S 17 22 9 12 1022.4 1022.4 2.0
03/08:00am 18.0 16.5 15.4 85 1.5 SSW 17 24 9 13 1022.1 1022.1 1.4
03/07:30am 17.8 16.9 15.8 88 1.2 SW 15 19 8 10 1021.9 1021.9 1.4
03/07:00am 18.0 16.9 15.4 85 1.5 SW 15 19 8 10 1021.4 1021.4 1.4
03/06:30am 17.5 16.4 15.3 87 1.3 WSW 15 17 8 9 1021.2 1021.2 1.4
03/06:00am 17.4 16.3 15.4 88 1.2 SW 15 19 8 10 1020.9 1020.9 1.4
03/05:30am 17.4 16.3 15.2 87 1.3 SW 15 17 8 9 1020.7 1020.7 1.4
03/05:00am 17.4 16.6 15.2 87 1.3 WSW 13 19 7 10 1020.7 1020.7 1.4
03/04:30am 17.9 17.2 15.5 86 1.4 W 13 17 7 9 1020.6 1020.6 1.4
03/04:00am 17.7 16.5 15.1 85 1.5 WSW 15 19 8 10 1020.7 1020.7 1.4
03/03:30am 17.6 16.0 15.0 85 1.5 WSW 17 20 9 11 1020.9 1020.9 1.4
03/03:00am 18.0 16.4 16.0 88 1.2 WSW 19 24 10 13 1021.0 1021.0 1.4
03/02:30am 18.2 16.4 15.6 85 1.5 WSW 19 24 10 13 1021.0 1021.0 1.4
03/02:00am 18.3 17.0 15.9 86 1.4 W 17 24 9 13 1021.2 1021.2 1.4
03/01:30am 18.3 17.5 17.0 92 0.8 W 17 22 9 12 1021.2 1021.2 1.4
03/01:00am 17.5 16.2 17.3 99 0.1 NNE 20 28 11 15 1021.2 1021.2 1.4
03/12:30am 16.9 15.6 16.7 99 0.1 NNE 19 24 10 13 1021.2 1021.2 1.4
03/12:00am 16.9 14.9 16.4 97 0.3 N 22 28 12 15 1021.4 1021.4 1.4
 
Date/Time
WST
Temp
°C
App
Temp
°C
Dew
Point
Rel
Hum
%
Delta-T
°C
Wind Press
QNH
hPa
Press
MSL
hPa
Rain
since 9 am
mm
Dir
 
Spd
km/h
Gust
km/h
Spd
kts
Gust
kts
02/11:30pm 16.8 14.9 15.8 94 0.6 N 20 26 11 14 1021.7 1021.7 1.4
02/11:00pm 17.0 14.2 15.3 90 1.0 N 24 30 13 16 1021.7 1021.7 1.4
02/10:30pm 16.9 14.4 15.2 90 1.0 N 22 28 12 15 1021.9 1021.9 1.4
02/10:00pm 16.8 13.9 15.0 89 1.0 N 24 32 13 17 1022.0 1022.0 1.4
02/09:30pm 16.9 14.6 15.8 93 0.6 N 22 28 12 15 1021.9 1021.9 1.4
02/09:00pm 16.7 12.8 16.4 98 0.2 N 32 39 17 21 1021.7 1021.7 1.4
02/08:30pm 17.1 14.0 15.6 91 0.9 N 26 35 14 19 1021.9 1021.9 1.4
02/08:00pm 16.9 13.5 15.8 93 0.6 N 28 33 15 18 1021.8 1021.8 1.2
02/07:30pm 17.3 14.0 16.0 92 0.8 N 28 39 15 21 1021.5 1021.5 1.2
02/07:29pm 17.3 14.0 16.0 92 0.8 N 28 39 15 21 1021.5 1021.5 1.2
02/07:00pm 17.8 17.0 16.0 89 1.1 NNW 15 20 8 11 1021.5 1021.5 1.2
02/06:30pm 17.7 16.0 15.7 88 1.2 NW 19 22 10 12 1021.4 1021.4 1.2
02/06:00pm 17.7 16.0 15.7 88 1.2 NNW 19 26 10 14 1020.4 1020.4 1.0
02/05:30pm 18.5 16.7 15.9 85 1.5 NNW 20 26 11 14 1020.8 1020.8 0.4
02/05:00pm 17.8 15.0 14.3 80 2.0 NNW 22 26 12 14 1020.8 1020.8 0.4
02/04:30pm 17.5 15.0 14.2 81 1.9 N 20 26 11 14 1020.6 1020.6 0.4
02/04:00pm 18.3 14.1 12.5 69 3.2 N 26 32 14 17 1020.4 1020.4 0.0
02/03:30pm 18.4 14.6 12.4 68 3.3 N 24 32 13 17 1020.3 1020.3 0.0
02/03:00pm 18.8 14.9 12.1 65 3.7 N 24 30 13 16 1020.3 1020.3 0.0
02/02:30pm 19.0 14.4 12.3 65 3.7 N 28 35 15 19 1020.2 1020.2 0.0
02/02:00pm 18.8 14.5 11.9 64 3.8 N 26 33 14 18 1020.5 1020.5 0.0
02/01:30pm 19.0 14.5 11.3 61 4.2 NNE 26 32 14 17 1020.6 1020.6 0.0
02/01:00pm 18.9 14.2 10.7 59 4.4 NNE 26 30 14 16 1020.8 1020.8 0.0
02/12:30pm 18.3 13.4 11.4 64 3.8 N 28 35 15 19 1021.5 1021.5 0.0
02/12:00pm 18.4 13.5 11.2 63 3.9 NNE 28 35 15 19 1021.7 1021.7 0.0
02/11:30am 17.6 13.0 11.2 66 3.5 NNE 26 32 14 17 1022.2 1022.2 0.0
02/11:00am 17.8 13.5 10.7 63 3.8 NNE 24 32 13 17 1022.2 1022.2 0.0
02/10:30am 17.3 13.7 10.4 64 3.7 NNE 20 26 11 14 1022.5 1022.5 0.0
02/10:00am 16.6 13.7 10.9 69 3.0 NNE 17 24 9 13 1023.0 1023.0 0.0
02/09:30am 16.5 12.1 10.4 67 3.2 NE 24 30 13 16 1022.6 1022.6 0.0
02/09:00am 16.6 11.7 9.8 64 3.6 NE 26 33 14 18 1022.2 1022.2 4.8
02/08:30am 16.6 11.9 9.3 62 3.8 NE 24 32 13 17 1022.2 1022.2 4.8
02/08:00am 16.7 12.0 9.4 62 3.8 NE 24 32 13 17 1022.2 1022.2 4.8
02/07:30am 16.8 12.3 10.0 64 3.6 NE 24 30 13 16 1022.0 1022.0 4.8
02/07:00am 16.5 11.9 9.7 64 3.5 NE 24 33 13 18 1021.7 1021.7 4.8
02/06:30am 16.7 13.2 10.3 66 3.4 NE 19 32 10 17 1021.5 1021.5 4.8
02/06:00am 16.4 13.0 11.1 71 2.8 NE 20 28 11 15 1021.3 1021.3 4.8
02/05:30am 16.2 12.3 10.9 71 2.8 ENE 22 28 12 15 1021.3 1021.3 4.8
02/05:00am 16.4 12.9 10.9 70 2.9 NE 20 28 11 15 1021.2 1021.2 4.8
02/04:30am 16.9 13.5 10.5 66 3.4 NE 19 22 10 12 1021.5 1021.5 4.8
02/04:00am 16.5 13.9 10.8 69 3.0 NE 15 20 8 11 1021.4 1021.4 4.8
02/03:30am 16.7 10.9 11.4 71 2.9 NNE 33 43 18 23 1022.3 1022.3 4.8
02/03:00am 16.6 13.2 12.4 76 2.3 NNE 22 39 12 21 1022.6 1022.6 4.8
02/02:30am 16.5 13.5 12.1 75 2.4 NE 19 24 10 13 1022.3 1022.3 4.8
02/02:00am 16.0 13.5 12.4 79 2.0 ENE 17 24 9 13 1021.9 1021.9 4.8
02/01:30am 15.5 13.0 12.4 82 1.7 ENE 17 20 9 11 1022.4 1022.4 4.8
02/01:00am 15.4 12.5 12.2 81 1.7 ENE 19 22 10 12 1022.9 1022.9 4.8
02/12:30am 15.4 13.3 12.3 82 1.7 ENE 15 19 8 10 1023.3 1023.3 4.8
02/12:00am 15.5 14.5 12.4 82 1.7 N 9 11 5 6 1023.6 1023.6 4.8
 
Date/Time
WST
Temp
°C
App
Temp
°C
Dew
Point
Rel
Hum
%
Delta-T
°C
Wind Press
QNH
hPa
Press
MSL
hPa
Rain
since 9 am
mm
Dir
 
Spd
km/h
Gust
km/h
Spd
kts
Gust
kts
01/11:30pm 15.6 12.6 12.5 82 1.7 NE 20 26 11 14 1023.5 1023.5 4.8
01/11:00pm 15.4 12.4 12.5 83 1.6 NE 20 24 11 13 1023.7 1023.7 4.8
01/10:30pm 15.3 11.9 12.4 83 1.6 NE 22 28 12 15 1023.5 1023.5 4.8
01/10:00pm 15.6 12.7 12.9 84 1.5 NE 20 26 11 14 1023.5 1023.5 4.8
01/09:30pm 15.5 12.5 13.7 89 1.0 NNE 22 28 12 15 1024.0 1024.0 4.8
01/09:00pm 15.5 12.7 13.3 87 1.2 NNE 20 26 11 14 1024.1 1024.1 4.6
01/08:30pm 15.8 13.2 13.8 88 1.1 NNE 20 26 11 14 1024.4 1024.4 4.0
01/08:00pm 16.2 14.5 14.6 90 0.9 NNE 17 19 9 10 1023.9 1023.9 4.0
01/07:30pm 16.6 15.4 15.1 91 0.9 NNE 15 20 8 11 1023.9 1023.9 4.0
01/07:00pm 17.1 16.1 15.6 91 0.9 N 15 20 8 11 1023.7 1023.7 3.8
01/06:30pm 16.9 16.5 15.1 89 1.0 N 11 15 6 8 1023.5 1023.5 3.6
01/06:00pm 17.2 15.4 15.9 92 0.8 NNW 20 26 11 14 1023.2 1023.2 3.6
01/05:30pm 16.8 14.3 15.2 90 0.9 WNW 22 30 12 16 1023.6 1023.6 2.0
01/05:00pm 17.6 15.3 14.7 83 1.7 NNW 20 26 11 14 1023.5 1023.5 0.0
01/04:30pm 18.1 15.8 14.6 80 2.0 NNW 20 28 11 15 1023.3 1023.3 0.0
01/04:00pm 18.0 16.1 14.3 79 2.1 N 17 20 9 11 1023.5 1023.5 0.0
01/03:30pm 18.6 16.4 13.2 71 3.1 N 17 22 9 12 1023.3 1023.3 0.0
01/03:00pm 18.8 16.4 12.5 67 3.5 N 17 20 9 11 1022.8 1022.8 0.0
01/02:30pm 18.9 16.6 11.9 64 3.9 N 15 19 8 10 1022.9 1022.9 0.0
01/02:00pm 18.5 16.9 11.6 64 3.8 N 11 15 6 8 1022.9 1022.9 0.0
01/01:30pm 18.5 16.8 11.1 62 4.0 N 11 13 6 7 1022.9 1022.9 0.0
01/01:00pm 18.5 16.7 10.8 61 4.1 N 11 15 6 8 1022.9 1022.9 0.0
01/12:30pm 18.5 15.7 10.1 58 4.5 N 15 20 8 11 1023.1 1023.1 0.0
01/12:00pm 18.5 16.2 10.6 60 4.2 N 13 19 7 10 1023.5 1023.5 0.0
01/11:30am 18.3 15.2 10.2 59 4.3 NNE 17 20 9 11 1023.8 1023.8 0.0
01/11:00am 18.2 14.5 10.1 59 4.3 NNE 20 24 11 13 1023.7 1023.7 0.0
01/10:30am 18.2 15.0 9.8 58 4.5 NNE 17 20 9 11 1023.6 1023.6 0.0
01/10:00am 17.9 14.7 10.0 60 4.2 NNE 17 20 9 11 1023.7 1023.7 0.0
01/09:30am 18.6 15.8 11.2 62 4.0 NE 17 22 9 12 1023.8 1023.8 0.0
01/09:00am 17.7 14.7 10.8 64 3.7 NNE 17 20 9 11 1023.5 1023.5 0.0
01/08:30am 17.6 15.0 12.1 70 3.0 NNE 17 20 9 11 1023.6 1023.6 0.0
01/08:00am 16.6 15.0 12.9 79 2.1 NNE 13 17 7 9 1023.8 1023.8 0.0
01/07:30am 16.9 15.0 13.0 78 2.2 NE 15 17 8 9 1023.2 1023.2 0.0
01/07:00am 16.9 15.4 13.2 79 2.1 NE 13 17 7 9 1023.0 1023.0 0.0
01/06:30am 16.7 15.4 13.6 82 1.8 NE 13 17 7 9 1022.9 1022.9 0.0
01/06:00am 16.4 15.0 13.5 83 1.6 NNE 13 15 7 8 1022.5 1022.5 0.0
01/05:30am 16.6 15.2 13.5 82 1.7 NNE 13 17 7 9 1022.7 1022.7 0.0
01/05:00am 16.9 14.7 13.2 79 2.1 NNE 17 20 9 11 1022.6 1022.6 0.0
01/04:30am 16.6 15.1 13.1 80 2.0 NNE 13 17 7 9 1022.5 1022.5 0.0
01/04:00am 17.2 16.6 14.5 84 1.5 NE 11 15 6 8 1022.5 1022.5 0.0
01/03:30am 18.5 18.5 15.2 81 1.9 NW 9 11 5 6 1022.4 1022.4 0.0
01/03:00am 17.8 16.8 14.7 82 1.8 NNW 13 17 7 9 1022.6 1022.6 0.0
01/02:30am 17.6 16.4 13.9 79 2.1 N 13 15 7 8 1022.8 1022.8 0.0
01/02:00am 17.6 15.8 14.5 82 1.8 N 17 20 9 11 1022.8 1022.8 0.0
01/01:30am 17.6 15.5 15.2 86 1.4 N 20 26 11 14 1022.6 1022.6 0.0
01/01:00am 18.1 16.3 16.1 88 1.2 N 20 28 11 15 1022.7 1022.7 0.0
01/12:30am 18.3 17.7 16.6 90 1.0 N 15 19 8 10 1022.8 1022.8 0.0
01/12:00am 18.4 17.3 16.4 88 1.2 N 17 22 9 12 1022.6 1022.6 0.0
 
Date/Time
WST
Temp
°C
App
Temp
°C
Dew
Point
Rel
Hum
%
Delta-T
°C
Wind Press
QNH
hPa
Press
MSL
hPa
Rain
since 9 am
mm
Dir
 
Spd
km/h
Gust
km/h
Spd
kts
Gust
kts
30/11:30pm 18.2 17.0 16.0 87 1.3 N 17 22 9 12 1022.9 1022.9 0.0
30/11:00pm 18.0 16.6 15.6 86 1.4 N 17 20 9 11 1023.1 1023.1 0.0
30/10:30pm 18.1 16.8 15.9 87 1.3 NNE 17 20 9 11 1022.5 1022.5 0.0
30/10:00pm 18.6 16.9 15.8 84 1.7 N 19 24 10 13 1023.1 1023.1 0.0
30/09:30pm 18.4 17.9 15.8 85 1.5 N 13 17 7 9 1022.7 1022.7 0.0
30/09:00pm 18.7 17.4 15.9 84 1.7 N 17 19 9 10 1022.5 1022.5 0.0
30/08:30pm 18.6 17.2 15.5 82 1.8 N 17 20 9 11 1022.4 1022.4 0.0
30/08:00pm 18.6 17.9 15.5 82 1.8 NNW 13 17 7 9 1022.7 1022.7 0.0
30/07:30pm 18.7 16.7 15.0 79 2.2 N 19 22 10 12 1022.4 1022.4 0.0
30/07:00pm 18.5 16.8 14.8 79 2.1 N 17 20 9 11 1022.2 1022.2 0.0
30/06:30pm 18.6 17.0 14.9 79 2.2 NNW 17 20 9 11 1022.4 1022.4 0.0
30/06:00pm 18.5 17.3 15.0 80 2.0 NNW 15 20 8 11 1021.7 1021.7 0.0
30/05:30pm 18.7 17.1 15.0 79 2.2 NNW 17 20 9 11 1021.6 1021.6 0.0
30/05:00pm 18.8 16.8 14.9 78 2.3 N 19 24 10 13 1021.5 1021.5 0.0
30/04:30pm 19.0 17.3 14.7 76 2.5 NNW 17 22 9 12 1021.5 1021.5 0.0
30/04:00pm 19.2 16.3 14.0 72 3.0 NNW 22 28 12 15 1021.8 1021.8 0.0

Other Formats:

Comma delimited format used in spreadsheet applications
http://www.bom.gov.au/fwo/IDW60801/IDW60801.94602.axf

JavaScript Object Notation format (JSON) in row-major order
http://www.bom.gov.au/fwo/IDW60801/IDW60801.94602.json